createdAt,value
2022-08-03T00:00:39.553Z,96425.41
2022-08-03T00:03:09.483Z,96422.56
2022-08-03T00:05:38.380Z,96427.38
2022-08-03T00:08:07.167Z,96420.59
2022-08-03T00:10:35.911Z,96424.66
2022-08-03T00:13:04.524Z,96415.53
2022-08-03T00:15:33.036Z,96431.31
2022-08-03T00:18:01.628Z,96430.16
2022-08-03T00:20:31.442Z,96420.44
2022-08-03T00:22:59.880Z,96418.31
2022-08-03T00:25:28.495Z,96428.69
2022-08-03T00:27:56.959Z,96419.59
2022-08-03T00:30:26.903Z,96425.47
2022-08-03T00:32:59.948Z,96418.44
2022-08-03T00:35:49.213Z,96417.38
2022-08-03T00:38:19.388Z,96415.16
2022-08-03T00:40:47.965Z,96418.09
2022-08-03T00:43:16.450Z,96418.59
2022-08-03T00:45:45.216Z,96409.03
2022-08-03T00:48:32.202Z,96411.63
2022-08-03T00:51:03.728Z,96415.03
2022-08-03T00:53:35.797Z,96410.03
2022-08-03T00:56:04.401Z,96417.66
2022-08-03T00:58:32.929Z,96415.94
2022-08-03T01:01:01.513Z,96415.34
2022-08-03T01:03:30.021Z,96414.19
2022-08-03T01:06:05.154Z,96412.44
2022-08-03T01:08:43.885Z,96406.38
2022-08-03T01:11:20.367Z,96414.09
2022-08-03T01:14:01.364Z,96409.28
2022-08-03T01:16:56.900Z,96407.03
2022-08-03T01:19:39.987Z,96400.63
2022-08-03T01:22:24.379Z,96410.94
2022-08-03T01:25:02.473Z,96404.69
2022-08-03T01:27:36.643Z,96411.63
2022-08-03T01:30:09.300Z,96401.09
2022-08-03T01:33:03.099Z,96400.28
2022-08-03T01:35:38.799Z,96402.97
2022-08-03T01:38:12.950Z,96402.03
2022-08-03T01:40:42.966Z,96399.50
2022-08-03T01:43:55.494Z,96392.47
2022-08-03T01:46:09.968Z,96396.66
2022-08-03T01:48:40.343Z,96391.03
2022-08-03T01:51:10.591Z,96386.25
2022-08-03T01:53:42.806Z,96383.00
2022-08-03T01:56:12.959Z,96382.66
2022-08-03T01:58:43.106Z,96391.78
2022-08-03T02:01:14.818Z,96382.28
2022-08-03T02:03:59.478Z,96382.53
2022-08-03T02:06:59.814Z,96389.44
2022-08-03T02:09:24.727Z,96394.97
2022-08-03T02:11:56.000Z,96389.47
2022-08-03T02:14:25.032Z,96389.81
2022-08-03T02:16:57.075Z,96389.38
2022-08-03T02:19:27.138Z,96392.75
2022-08-03T02:22:01.076Z,96387.94
2022-08-03T02:24:30.653Z,96388.75
2022-08-03T02:27:02.263Z,96381.97
2022-08-03T02:29:39.103Z,96381.75
2022-08-03T02:32:18.396Z,96385.97
2022-08-03T02:34:52.729Z,96383.66
2022-08-03T02:37:25.094Z,96388.53
2022-08-03T02:39:59.051Z,96384.56
2022-08-03T02:42:29.739Z,96380.25
2022-08-03T02:45:02.055Z,96384.91
2022-08-03T02:47:53.396Z,96389.84
2022-08-03T02:50:24.579Z,96381.53
2022-08-03T02:52:54.186Z,96388.19
2022-08-03T02:55:24.950Z,96384.56
2022-08-03T02:57:54.847Z,96375.56
2022-08-03T03:00:28.135Z,96386.44
2022-08-03T03:03:01.094Z,96384.69
2022-08-03T03:05:53.197Z,96392.16
2022-08-03T03:08:25.815Z,96388.53
2022-08-03T03:10:56.838Z,96385.41
2022-08-03T03:13:26.507Z,96383.16
2022-08-03T03:15:57.710Z,96388.63
2022-08-03T03:18:29.689Z,96381.28
2022-08-03T03:21:00.083Z,96389.94
2022-08-03T03:23:30.033Z,96388.53
2022-08-03T03:26:00.214Z,96385.13
2022-08-03T03:28:29.735Z,96385.97
2022-08-03T03:30:58.643Z,96390.28
2022-08-03T03:33:28.776Z,96386.44
2022-08-03T03:35:58.818Z,96386.66
2022-08-03T03:38:27.389Z,96391.31
2022-08-03T03:40:56.505Z,96385.13
2022-08-03T03:43:25.951Z,96384.53
2022-08-03T03:45:56.129Z,96386.94
2022-08-03T03:48:26.448Z,96401.63
2022-08-03T03:50:57.360Z,96398.53
2022-08-03T03:53:26.365Z,96398.19
2022-08-03T03:55:59.518Z,96396.22
2022-08-03T03:58:33.240Z,96397.16
2022-08-03T04:01:02.354Z,96403.50
2022-08-03T04:03:31.094Z,96384.81
2022-08-03T04:06:18.567Z,96394.06
2022-08-03T04:09:04.836Z,96395.34
2022-08-03T04:11:39.218Z,96397.41
2022-08-03T04:14:12.190Z,96386.13
2022-08-03T04:16:45.117Z,96395.69
2022-08-03T04:19:23.140Z,96394.25
2022-08-03T04:21:58.806Z,96395.66
2022-08-03T04:24:31.737Z,96401.63
2022-08-03T04:27:02.090Z,96406.06
2022-08-03T04:29:32.214Z,96403.72
2022-08-03T04:32:03.130Z,96404.09
2022-08-03T04:34:32.257Z,96403.03
2022-08-03T04:37:07.145Z,96407.38
2022-08-03T04:39:38.258Z,96403.16
2022-08-03T04:42:09.341Z,96404.56
2022-08-03T04:44:41.093Z,96399.53
2022-08-03T04:47:09.703Z,96407.72
2022-08-03T04:49:39.327Z,96410.56
2022-08-03T04:52:10.963Z,96409.47
2022-08-03T04:54:48.788Z,96413.81
2022-08-03T04:57:22.101Z,96404.34
2022-08-03T04:59:58.259Z,96404.34
2022-08-03T05:02:31.331Z,96409.47
2022-08-03T05:05:00.119Z,96405.16
2022-08-03T05:07:35.538Z,96404.34
2022-08-03T05:10:11.711Z,96405.97
2022-08-03T05:12:46.887Z,96408.44
2022-08-03T05:15:15.916Z,96401.88
2022-08-03T05:17:44.810Z,96408.91
2022-08-03T05:20:13.833Z,96411.59
2022-08-03T05:22:48.026Z,96409.25
2022-08-03T05:25:16.909Z,96410.66
2022-08-03T05:27:47.914Z,96414.28
2022-08-03T05:30:31.024Z,96416.03
2022-08-03T05:33:04.561Z,96411.47
2022-08-03T05:36:02.061Z,96416.38
2022-08-03T05:38:34.387Z,96414.28
2022-08-03T05:41:21.558Z,96415.44
2022-08-03T05:43:53.739Z,96410.63
2022-08-03T05:46:22.726Z,96411.22
2022-08-03T05:48:51.338Z,96419.41
2022-08-03T05:51:19.760Z,96417.31
2022-08-03T05:53:49.643Z,96414.03
2022-08-03T05:56:18.135Z,96415.91
2022-08-03T05:58:48.000Z,96415.81
2022-08-03T06:01:17.165Z,96411.72
2022-08-03T06:03:46.118Z,96419.91
2022-08-03T06:06:15.073Z,96413.81
2022-08-03T06:08:44.735Z,96413.44
2022-08-03T06:11:14.619Z,96413.31
2022-08-03T06:13:43.470Z,96417.81
2022-08-03T06:16:11.978Z,96420.84
2022-08-03T06:18:41.151Z,96421.69
2022-08-03T06:21:15.336Z,96426.59
2022-08-03T06:23:54.499Z,96425.91
2022-08-03T06:26:27.761Z,96427.84
2022-08-03T06:28:56.842Z,96430.09
2022-08-03T06:31:33.054Z,96431.81
2022-08-03T06:34:33.405Z,96428.97
2022-08-03T06:36:58.449Z,96429.44
2022-08-03T06:39:30.614Z,96431.84
2022-08-03T06:42:00.485Z,96429.09
2022-08-03T06:44:28.971Z,96431.22
2022-08-03T06:46:57.606Z,96434.09
2022-08-03T06:49:26.172Z,96434.50
2022-08-03T06:52:05.802Z,96434.34
2022-08-03T06:54:37.226Z,96422.56
2022-08-03T06:57:09.753Z,96436.66
2022-08-03T07:00:09.188Z,96438.06
2022-08-03T07:02:28.531Z,96438.06
2022-08-03T07:04:57.815Z,96429.16
2022-08-03T07:07:26.407Z,96430.03
2022-08-03T07:09:57.527Z,96441.78
2022-08-03T07:12:29.586Z,96426.00
2022-08-03T07:15:01.187Z,96433.69
2022-08-03T07:17:32.212Z,96433.00
2022-08-03T07:20:01.586Z,96428.75
2022-08-03T07:22:30.444Z,96438.53
2022-08-03T07:24:59.217Z,96432.47
2022-08-03T07:27:30.400Z,96433.69
2022-08-03T07:30:00.010Z,96433.25
2022-08-03T07:32:31.484Z,96430.38
2022-08-03T07:35:01.396Z,96433.72
2022-08-03T07:37:31.199Z,96434.84
2022-08-03T07:40:00.727Z,96433.31
2022-08-03T07:42:30.927Z,96433.38
2022-08-03T07:45:00.032Z,96425.66
2022-08-03T07:47:35.483Z,96418.13
2022-08-03T07:50:06.562Z,96423.06
2022-08-03T07:52:50.769Z,96427.22
2022-08-03T07:55:20.857Z,96427.03
2022-08-03T07:58:01.183Z,96423.06
2022-08-03T08:00:30.444Z,96426.38
2022-08-03T08:02:59.069Z,96425.34
2022-08-03T08:05:27.984Z,96420.81
2022-08-03T08:07:57.184Z,96425.19
2022-08-03T08:10:25.863Z,96421.69
2022-08-03T08:12:56.229Z,96415.22
2022-08-03T08:15:24.956Z,96415.28
2022-08-03T08:17:54.957Z,96410.72
2022-08-03T08:20:30.714Z,96407.22
2022-08-03T08:23:02.714Z,96413.25
2022-08-03T08:25:32.305Z,96414.13
2022-08-03T08:28:31.517Z,96418.47
2022-08-03T08:30:52.950Z,96409.59
2022-08-03T08:33:23.536Z,96406.34
2022-08-03T08:35:54.234Z,96405.84
2022-08-03T08:38:23.647Z,96407.53
2022-08-03T08:40:52.752Z,96399.94
2022-08-03T08:43:22.852Z,96397.81
2022-08-03T08:45:53.549Z,96403.84
2022-08-03T08:48:27.060Z,96403.56
2022-08-03T08:50:56.812Z,96400.38
2022-08-03T08:53:29.147Z,96399.31
2022-08-03T08:56:01.489Z,96402.34
2022-08-03T08:58:35.977Z,96400.19
2022-08-03T09:01:05.326Z,96402.63
2022-08-03T09:03:34.609Z,96402.41
2022-08-03T09:06:03.524Z,96408.63
2022-08-03T09:08:33.571Z,96399.16
2022-08-03T09:11:02.963Z,96401.63
2022-08-03T09:13:34.809Z,96394.84
2022-08-03T09:16:14.561Z,96387.56
2022-08-03T09:18:44.243Z,96399.78
2022-08-03T09:21:37.274Z,96388.09
2022-08-03T09:24:16.574Z,96386.47
2022-08-03T09:26:54.586Z,96395.16
2022-08-03T09:29:24.583Z,96381.84
2022-08-03T09:32:02.525Z,96376.69
2022-08-03T09:34:31.440Z,96376.94
2022-08-03T09:36:59.981Z,96378.56
2022-08-03T09:39:41.239Z,96378.03
2022-08-03T09:42:14.715Z,96373.16
2022-08-03T09:44:46.458Z,96371.19
2022-08-03T09:47:16.700Z,96377.97
2022-08-03T09:49:59.039Z,96372.53
2022-08-03T09:52:50.019Z,96379.31
2022-08-03T09:56:32.861Z,96371.16
2022-08-03T09:58:12.768Z,96378.44
2022-08-03T10:00:56.977Z,96368.06
2022-08-03T10:03:27.495Z,96370.97
2022-08-03T10:05:59.833Z,96365.72
2022-08-03T10:08:28.700Z,96363.19
2022-08-03T10:10:58.736Z,96365.28
2022-08-03T10:13:27.495Z,96362.72
2022-08-03T10:16:21.711Z,96353.41
2022-08-03T10:18:49.791Z,96354.63
2022-08-03T10:21:20.823Z,96349.91
2022-08-03T10:23:50.878Z,96348.19
2022-08-03T10:26:23.677Z,96349.72
2022-08-03T10:28:56.521Z,96350.44
2022-08-03T10:31:27.488Z,96346.28
2022-08-03T10:33:59.155Z,96341.28
2022-08-03T10:36:31.583Z,96340.34
2022-08-03T10:39:02.429Z,96342.16
2022-08-03T10:41:36.249Z,96328.97
2022-08-03T10:44:07.908Z,96337.84
2022-08-03T10:46:44.691Z,96341.63
2022-08-03T10:49:15.238Z,96332.53
2022-08-03T10:51:45.642Z,96334.13
2022-08-03T10:54:59.766Z,96326.59
2022-08-03T10:57:45.852Z,96318.25
2022-08-03T11:00:19.075Z,96321.69
2022-08-03T11:03:07.380Z,96322.72
2022-08-03T11:05:38.871Z,96326.97
2022-08-03T11:08:25.268Z,96318.13
2022-08-03T11:10:55.275Z,96311.69
2022-08-03T11:13:25.058Z,96314.31
2022-08-03T11:16:01.749Z,96310.91
2022-08-03T11:18:33.772Z,96311.84
2022-08-03T11:21:02.627Z,96321.31
2022-08-03T11:24:04.334Z,96307.78
2022-08-03T11:26:34.307Z,96312.81
2022-08-03T11:29:27.964Z,96309.50
2022-08-03T11:31:56.633Z,96312.75
2022-08-03T11:34:27.055Z,96305.84
2022-08-03T11:37:22.605Z,96300.59
2022-08-03T11:39:54.488Z,96302.53
2022-08-03T11:42:48.062Z,96298.50
2022-08-03T11:45:16.569Z,96302.97
2022-08-03T11:47:51.119Z,96300.63
2022-08-03T11:50:22.167Z,96298.59
2022-08-03T11:52:51.427Z,96291.91
2022-08-03T11:55:22.141Z,96294.53
2022-08-03T11:59:01.901Z,96296.03
2022-08-03T12:00:40.599Z,96291.56
2022-08-03T12:03:11.960Z,96281.31
2022-08-03T12:05:51.167Z,96283.66
2022-08-03T12:08:32.396Z,96280.28
2022-08-03T12:11:05.752Z,96281.00
2022-08-03T12:14:36.707Z,96281.69
2022-08-03T12:16:30.687Z,96280.16
2022-08-03T12:19:00.628Z,96273.44
2022-08-03T12:21:31.296Z,96275.25
2022-08-03T12:24:00.889Z,96269.03
2022-08-03T12:26:30.430Z,96276.63
2022-08-03T12:28:58.983Z,96279.22
2022-08-03T12:31:27.657Z,96279.59
2022-08-03T12:33:58.885Z,96272.09
2022-08-03T12:36:28.680Z,96279.38
2022-08-03T12:39:00.719Z,96268.09
2022-08-03T12:41:35.307Z,96268.28
2022-08-03T12:44:05.941Z,96262.66
2022-08-03T12:46:36.062Z,96265.47
2022-08-03T12:49:08.383Z,96260.16
2022-08-03T12:51:39.939Z,96265.47
2022-08-03T12:54:10.468Z,96257.13
2022-08-03T12:56:58.787Z,96258.28
2022-08-03T12:59:32.504Z,96256.22
2022-08-03T13:02:09.512Z,96250.09
2022-08-03T13:04:38.417Z,96253.53
2022-08-03T13:07:14.352Z,96247.09
2022-08-03T13:09:47.161Z,96244.84
2022-08-03T13:12:17.167Z,96243.91
2022-08-03T13:14:48.692Z,96243.75
2022-08-03T13:17:18.190Z,96249.41
2022-08-03T13:19:48.633Z,96246.66
2022-08-03T13:22:19.622Z,96250.72
2022-08-03T13:24:51.472Z,96247.97
2022-08-03T13:28:02.022Z,96253.78
2022-08-03T13:30:10.259Z,96248.47
2022-08-03T13:32:38.876Z,96250.72
2022-08-03T13:35:08.833Z,96250.09
2022-08-03T13:37:38.745Z,96240.41
2022-08-03T13:40:11.601Z,96244.63
2022-08-03T13:42:40.423Z,96252.53
2022-08-03T13:45:10.491Z,96239.63
2022-08-03T13:47:39.015Z,96239.63
2022-08-03T13:50:08.155Z,96228.66
2022-08-03T13:52:37.202Z,96234.63
2022-08-03T13:55:09.295Z,96232.84
2022-08-03T13:58:05.705Z,96230.66
2022-08-03T14:00:29.352Z,96232.75
2022-08-03T14:03:13.846Z,96227.75
2022-08-03T14:05:43.030Z,96222.72
2022-08-03T14:08:12.000Z,96224.53
2022-08-03T14:10:44.233Z,96219.53
2022-08-03T14:13:16.881Z,96222.09
2022-08-03T14:15:49.936Z,96217.25
2022-08-03T14:18:27.705Z,96218.41
2022-08-03T14:21:07.299Z,96215.81
2022-08-03T14:23:38.089Z,96211.31
2022-08-03T14:26:09.939Z,96211.78
2022-08-03T14:28:38.465Z,96218.06
2022-08-03T14:31:08.422Z,96216.97
2022-08-03T14:33:55.423Z,96219.03
2022-08-03T14:36:24.279Z,96205.31
2022-08-03T14:38:52.840Z,96209.69
2022-08-03T14:41:22.847Z,96207.41
2022-08-03T14:44:02.000Z,96205.47
2022-08-03T14:46:32.159Z,96205.00
2022-08-03T14:50:28.893Z,96203.53
2022-08-03T14:51:53.826Z,96197.72
2022-08-03T14:54:23.653Z,96197.56
2022-08-03T14:56:53.718Z,96194.66
2022-08-03T14:59:22.311Z,96192.88
2022-08-03T15:02:02.108Z,96196.94
2022-08-03T15:04:32.280Z,96190.31
2022-08-03T15:07:00.788Z,96185.63
2022-08-03T15:09:29.396Z,96187.25
2022-08-03T15:11:59.337Z,96180.63
2022-08-03T15:14:28.338Z,96178.66
2022-08-03T15:17:01.665Z,96179.50
2022-08-03T15:20:00.985Z,96182.56
2022-08-03T15:22:20.767Z,96181.75
2022-08-03T15:24:53.872Z,96179.78
2022-08-03T15:27:24.277Z,96170.94
2022-08-03T15:30:09.021Z,96169.47
2022-08-03T15:32:38.820Z,96175.13
2022-08-03T15:35:07.806Z,96175.44
2022-08-03T15:37:36.807Z,96171.25
2022-08-03T15:40:06.656Z,96174.97
2022-08-03T15:42:36.496Z,96175.13
2022-08-03T15:45:05.607Z,96169.75
2022-08-03T15:47:34.116Z,96170.25
2022-08-03T15:50:06.542Z,96173.31
2022-08-03T15:52:38.139Z,96170.06
2022-08-03T15:55:07.648Z,96167.16
2022-08-03T15:59:04.339Z,96160.53
2022-08-03T16:00:33.508Z,96157.13
2022-08-03T16:03:02.727Z,96156.66
2022-08-03T16:05:31.296Z,96165.06
2022-08-03T16:08:03.805Z,96159.22
2022-08-03T16:10:33.812Z,96151.31
2022-08-03T16:13:03.820Z,96153.56
2022-08-03T16:15:32.398Z,96165.66
2022-08-03T16:18:07.241Z,96155.03
2022-08-03T16:20:35.824Z,96151.00
2022-08-03T16:23:10.333Z,96153.19
2022-08-03T16:25:40.463Z,96149.38
2022-08-03T16:28:14.611Z,96143.88
2022-08-03T16:30:45.244Z,96139.19
2022-08-03T16:33:17.451Z,96138.41
2022-08-03T16:35:46.780Z,96149.53
2022-08-03T16:38:18.880Z,96154.22
2022-08-03T16:40:51.613Z,96156.97
2022-08-03T16:43:23.193Z,96143.56
2022-08-03T16:45:52.228Z,96145.81
2022-08-03T16:48:21.171Z,96148.84
2022-08-03T16:50:49.720Z,96153.84
2022-08-03T16:53:18.734Z,96148.19
2022-08-03T16:56:06.715Z,96149.94
2022-08-03T16:58:42.394Z,96147.03
2022-08-03T17:01:22.122Z,96151.53
2022-08-03T17:04:01.698Z,96151.53
2022-08-03T17:06:35.987Z,96147.81
2022-08-03T17:09:08.739Z,96149.28
2022-08-03T17:11:43.961Z,96154.22
2022-08-03T17:14:14.803Z,96155.69
2022-08-03T17:16:52.939Z,96155.50
2022-08-03T17:19:24.922Z,96153.06
2022-08-03T17:22:01.234Z,96160.47
2022-08-03T17:24:33.343Z,96152.81
2022-08-03T17:27:04.170Z,96158.53
2022-08-03T17:29:47.367Z,96151.75
2022-08-03T17:32:19.684Z,96159.09
2022-08-03T17:34:50.258Z,96161.56
2022-08-03T17:37:49.995Z,96172.56
2022-08-03T17:40:17.487Z,96163.72
2022-08-03T17:42:50.671Z,96161.03
2022-08-03T17:45:21.306Z,96165.41
2022-08-03T17:47:57.579Z,96167.84
2022-08-03T17:50:47.961Z,96163.53
2022-08-03T17:53:23.616Z,96171.66
2022-08-03T17:56:38.702Z,96165.28
2022-08-03T17:59:08.559Z,96173.38
2022-08-03T18:02:12.238Z,96174.38
2022-08-03T18:04:55.520Z,96180.00
2022-08-03T18:07:41.059Z,96184.75
2022-08-03T18:10:11.383Z,96184.66
2022-08-03T18:12:52.218Z,96185.88
2022-08-03T18:15:27.952Z,96187.06
2022-08-03T18:18:10.404Z,96191.31
2022-08-03T18:20:41.969Z,96191.69
2022-08-03T18:23:24.676Z,96184.97
2022-08-03T18:26:02.803Z,96183.22
2022-08-03T18:28:34.978Z,96198.34
2022-08-03T18:31:05.665Z,96196.00
2022-08-03T18:34:32.218Z,96195.00
2022-08-03T18:36:31.124Z,96197.28
2022-08-03T18:39:02.341Z,96196.25
2022-08-03T18:41:34.794Z,96201.47
2022-08-03T18:44:08.283Z,96197.72
2022-08-03T18:47:07.172Z,96198.91
2022-08-03T18:49:49.540Z,96203.31
2022-08-03T18:52:27.575Z,96206.34
2022-08-03T18:55:11.117Z,96220.03
2022-08-03T18:58:05.209Z,96209.28
2022-08-03T19:00:42.656Z,96211.81
2022-08-03T19:03:25.034Z,96217.47
2022-08-03T19:06:19.966Z,96225.03
2022-08-03T19:08:55.679Z,96220.00
2022-08-03T19:12:26.140Z,96221.56
2022-08-03T19:14:28.429Z,96227.91
2022-08-03T19:17:05.786Z,96231.44
2022-08-03T19:19:44.035Z,96239.75
2022-08-03T19:22:15.949Z,96227.63
2022-08-03T19:24:47.867Z,96236.97
2022-08-03T19:27:17.387Z,96234.59
2022-08-03T19:29:58.906Z,96228.41
2022-08-03T19:32:30.295Z,96239.63
2022-08-03T19:35:00.378Z,96236.91
2022-08-03T19:37:33.261Z,96232.00
2022-08-03T19:40:10.885Z,96230.34
2022-08-03T19:42:46.577Z,96238.22
2022-08-03T19:45:22.348Z,96240.94
2022-08-03T19:48:14.407Z,96240.34
2022-08-03T19:50:44.733Z,96240.06
2022-08-03T19:53:15.128Z,96244.47
2022-08-03T19:55:49.016Z,96240.16
2022-08-03T19:58:24.555Z,96246.22
2022-08-03T20:00:57.368Z,96245.44
2022-08-03T20:03:42.984Z,96246.81
2022-08-03T20:06:13.006Z,96248.47
2022-08-03T20:08:51.426Z,96250.69
2022-08-03T20:14:11.732Z,96249.25
2022-08-03T20:16:42.738Z,96253.69
2022-08-03T20:19:14.306Z,96249.59
2022-08-03T20:21:46.205Z,96249.31
2022-08-03T20:24:24.569Z,96251.50
2022-08-03T20:26:58.159Z,96250.47
2022-08-03T20:30:05.406Z,96254.25
2022-08-03T20:32:29.852Z,96253.19
2022-08-03T20:35:00.753Z,96251.28
2022-08-03T20:37:30.515Z,96255.38
2022-08-03T20:40:01.139Z,96251.84
2022-08-03T20:42:29.603Z,96252.69
2022-08-03T20:45:05.584Z,96245.59
2022-08-03T20:47:50.677Z,96237.47
2022-08-03T20:50:31.615Z,96242.91
2022-08-03T20:53:02.573Z,96240.72
2022-08-03T20:56:01.917Z,96234.75
2022-08-03T20:58:31.929Z,96240.19
2022-08-03T21:01:02.281Z,96243.97
2022-08-03T21:03:41.136Z,96240.19
2022-08-03T21:06:27.873Z,96234.50
2022-08-03T21:09:04.067Z,96242.91
2022-08-03T21:11:53.242Z,96241.00
2022-08-03T21:13:03.677Z,96252.88
2022-08-03T21:14:26.435Z,96242.34
2022-08-03T21:16:56.953Z,96245.00
2022-08-03T21:19:31.427Z,96247.16
2022-08-03T21:22:00.899Z,96241.19
2022-08-03T21:24:31.715Z,96241.69
2022-08-03T21:27:02.080Z,96245.47
2022-08-03T21:29:31.419Z,96245.47
2022-08-03T21:32:00.965Z,96246.84
2022-08-03T21:34:30.595Z,96248.22
2022-08-03T21:36:59.048Z,96246.06
2022-08-03T21:39:27.586Z,96243.34
2022-08-03T21:41:56.307Z,96245.47
2022-08-03T21:44:28.960Z,96248.66
2022-08-03T21:46:59.407Z,96249.34
2022-08-03T21:50:02.661Z,96248.75
2022-08-03T21:52:21.996Z,96241.91
2022-08-03T21:54:52.066Z,96245.31
2022-08-03T21:57:24.007Z,96248.81
2022-08-03T21:59:57.005Z,96246.53
2022-08-03T22:02:31.446Z,96246.22
2022-08-03T22:05:05.058Z,96243.75
2022-08-03T22:07:34.435Z,96243.97
2022-08-03T22:10:05.518Z,96244.19
2022-08-03T22:12:34.920Z,96241.84
2022-08-03T22:15:07.697Z,96240.91
2022-08-03T22:17:54.573Z,96246.44
2022-08-03T22:20:26.728Z,96250.31
2022-08-03T22:22:57.301Z,96245.97
2022-08-03T22:25:29.961Z,96246.50
2022-08-03T22:28:00.556Z,96251.38
2022-08-03T22:30:31.684Z,96248.94
2022-08-03T22:33:02.432Z,96256.44
2022-08-03T22:35:32.912Z,96249.13
2022-08-03T22:38:16.610Z,96256.84
2022-08-03T22:40:46.032Z,96261.38
2022-08-03T22:43:14.844Z,96259.66
2022-08-03T22:46:10.171Z,96253.94
2022-08-03T22:48:41.013Z,96258.19
2022-08-03T22:51:10.641Z,96256.47
2022-08-03T22:53:40.736Z,96263.44
2022-08-03T22:56:09.564Z,96261.81
2022-08-03T22:58:38.284Z,96256.91
2022-08-03T23:01:10.205Z,96254.78
2022-08-03T23:03:58.827Z,96261.06
2022-08-03T23:06:33.908Z,96259.19
2022-08-03T23:09:04.604Z,96256.75
2022-08-03T23:11:38.093Z,96260.81
2022-08-03T23:14:13.277Z,96258.25
2022-08-03T23:16:45.364Z,96263.72
2022-08-03T23:19:17.315Z,96258.25
2022-08-03T23:22:02.239Z,96262.47
2022-08-03T23:24:34.516Z,96266.66
2022-08-03T23:27:04.769Z,96265.19
2022-08-03T23:29:35.894Z,96265.91
2022-08-03T23:32:07.338Z,96259.94
2022-08-03T23:34:58.167Z,96258.50
2022-08-03T23:37:27.191Z,96261.19
2022-08-03T23:39:58.081Z,96263.00
2022-08-03T23:42:27.454Z,96258.78
2022-08-03T23:44:59.443Z,96254.78
2022-08-03T23:47:47.074Z,96257.66
2022-08-03T23:50:16.505Z,96266.41
2022-08-03T23:52:56.895Z,96265.56
2022-08-03T23:55:38.430Z,96260.84
2022-08-03T23:58:16.221Z,96251.84
